sensor_id;sensor_type;location;lat;lon;timestamp;temperature;humidity
77582;DHT22;66726;52.388;9.986;2024-03-08T00:00:38;3.10;99.90
77582;DHT22;66726;52.388;9.986;2024-03-08T00:03:07;3.00;99.90
77582;DHT22;66726;52.388;9.986;2024-03-08T00:05:38;3.00;99.90
77582;DHT22;66726;52.388;9.986;2024-03-08T00:08:06;3.10;99.90
77582;DHT22;66726;52.388;9.986;2024-03-08T00:10:36;3.10;99.90
77582;DHT22;66726;52.388;9.986;2024-03-08T00:13:06;3.00;99.90
77582;DHT22;66726;52.388;9.986;2024-03-08T00:15:34;3.10;99.90
77582;DHT22;66726;52.388;9.986;2024-03-08T00:18:02;3.10;99.90
77582;DHT22;66726;52.388;9.986;2024-03-08T00:20:31;3.10;99.90
77582;DHT22;66726;52.388;9.986;2024-03-08T00:23:01;3.10;99.90
77582;DHT22;66726;52.388;9.986;2024-03-08T00:25:29;3.00;99.90
77582;DHT22;66726;52.388;9.986;2024-03-08T00:27:57;3.00;99.90
77582;DHT22;66726;52.388;9.986;2024-03-08T00:30:26;2.90;99.90
77582;DHT22;66726;52.388;9.986;2024-03-08T00:32:55;3.00;99.90
77582;DHT22;66726;52.388;9.986;2024-03-08T00:35:23;2.90;99.90
77582;DHT22;66726;52.388;9.986;2024-03-08T00:37:51;3.00;99.90
77582;DHT22;66726;52.388;9.986;2024-03-08T00:40:24;3.00;99.90
77582;DHT22;66726;52.388;9.986;2024-03-08T00:42:52;3.00;99.90
77582;DHT22;66726;52.388;9.986;2024-03-08T00:45:21;3.00;99.90
77582;DHT22;66726;52.388;9.986;2024-03-08T00:47:50;3.00;99.90
77582;DHT22;66726;52.388;9.986;2024-03-08T00:50:18;3.00;99.90
77582;DHT22;66726;52.388;9.986;2024-03-08T00:52:46;2.80;99.90
77582;DHT22;66726;52.388;9.986;2024-03-08T00:55:14;2.70;99.90
77582;DHT22;66726;52.388;9.986;2024-03-08T00:57:44;2.60;99.90
77582;DHT22;66726;52.388;9.986;2024-03-08T01:00:13;2.70;99.90
77582;DHT22;66726;52.388;9.986;2024-03-08T01:02:45;2.80;99.90
77582;DHT22;66726;52.388;9.986;2024-03-08T01:05:13;2.80;99.90
77582;DHT22;66726;52.388;9.986;2024-03-08T01:07:41;2.60;99.90
77582;DHT22;66726;52.388;9.986;2024-03-08T01:10:10;2.60;99.90
77582;DHT22;66726;52.388;9.986;2024-03-08T01:12:38;2.70;99.90
77582;DHT22;66726;52.388;9.986;2024-03-08T01:15:09;2.60;99.90
77582;DHT22;66726;52.388;9.986;2024-03-08T01:17:38;2.60;99.90
77582;DHT22;66726;52.388;9.986;2024-03-08T01:20:07;2.60;99.90
77582;DHT22;66726;52.388;9.986;2024-03-08T01:22:38;2.60;99.90
77582;DHT22;66726;52.388;9.986;2024-03-08T01:25:06;2.60;99.90
77582;DHT22;66726;52.388;9.986;2024-03-08T01:27:35;2.50;99.90
77582;DHT22;66726;52.388;9.986;2024-03-08T01:30:04;2.50;99.90
77582;DHT22;66726;52.388;9.986;2024-03-08T01:32:35;2.50;99.90
77582;DHT22;66726;52.388;9.986;2024-03-08T01:35:04;2.40;99.90
77582;DHT22;66726;52.388;9.986;2024-03-08T01:37:32;2.50;99.90
77582;DHT22;66726;52.388;9.986;2024-03-08T01:40:01;2.40;99.90
77582;DHT22;66726;52.388;9.986;2024-03-08T01:42:30;2.40;99.90
77582;DHT22;66726;52.388;9.986;2024-03-08T01:44:58;2.40;99.90
77582;DHT22;66726;52.388;9.986;2024-03-08T01:47:27;2.30;99.90
77582;DHT22;66726;52.388;9.986;2024-03-08T01:49:57;2.20;99.90
77582;DHT22;66726;52.388;9.986;2024-03-08T01:52:26;2.10;99.90
77582;DHT22;66726;52.388;9.986;2024-03-08T01:54:59;2.10;99.90
77582;DHT22;66726;52.388;9.986;2024-03-08T01:57:31;2.10;99.90
77582;DHT22;66726;52.388;9.986;2024-03-08T02:00:01;2.10;99.90
77582;DHT22;66726;52.388;9.986;2024-03-08T02:02:32;2.10;99.90
77582;DHT22;66726;52.388;9.986;2024-03-08T02:05:03;2.10;99.90
77582;DHT22;66726;52.388;9.986;2024-03-08T02:07:33;2.10;99.90
77582;DHT22;66726;52.388;9.986;2024-03-08T02:10:02;2.00;99.90
77582;DHT22;66726;52.388;9.986;2024-03-08T02:12:30;2.10;99.90
77582;DHT22;66726;52.388;9.986;2024-03-08T02:14:58;2.10;99.90
77582;DHT22;66726;52.388;9.986;2024-03-08T02:17:26;2.20;99.90
77582;DHT22;66726;52.388;9.986;2024-03-08T02:19:55;2.10;99.90
77582;DHT22;66726;52.388;9.986;2024-03-08T02:22:28;2.10;99.90
77582;DHT22;66726;52.388;9.986;2024-03-08T02:24:57;2.10;99.90
77582;DHT22;66726;52.388;9.986;2024-03-08T02:27:28;2.10;99.90
77582;DHT22;66726;52.388;9.986;2024-03-08T02:29:57;2.10;99.90
77582;DHT22;66726;52.388;9.986;2024-03-08T02:32:26;2.00;99.90
77582;DHT22;66726;52.388;9.986;2024-03-08T02:34:56;2.00;99.90
77582;DHT22;66726;52.388;9.986;2024-03-08T02:37:27;1.90;99.90
77582;DHT22;66726;52.388;9.986;2024-03-08T02:39:56;1.90;99.90
77582;DHT22;66726;52.388;9.986;2024-03-08T02:42:24;1.90;99.90
77582;DHT22;66726;52.388;9.986;2024-03-08T02:44:52;1.90;99.90
77582;DHT22;66726;52.388;9.986;2024-03-08T02:47:20;2.00;99.90
77582;DHT22;66726;52.388;9.986;2024-03-08T02:49:51;1.90;99.90
77582;DHT22;66726;52.388;9.986;2024-03-08T02:52:19;1.90;99.90
77582;DHT22;66726;52.388;9.986;2024-03-08T02:54:49;1.90;99.90
77582;DHT22;66726;52.388;9.986;2024-03-08T02:57:17;1.90;99.90
77582;DHT22;66726;52.388;9.986;2024-03-08T02:59:46;1.80;99.90
77582;DHT22;66726;52.388;9.986;2024-03-08T03:02:14;1.80;99.90
77582;DHT22;66726;52.388;9.986;2024-03-08T03:04:43;1.70;99.90
77582;DHT22;66726;52.388;9.986;2024-03-08T03:07:11;1.50;99.90
77582;DHT22;66726;52.388;9.986;2024-03-08T03:09:39;1.40;99.90
77582;DHT22;66726;52.388;9.986;2024-03-08T03:12:09;1.40;99.90
77582;DHT22;66726;52.388;9.986;2024-03-08T03:14:37;1.30;99.90
77582;DHT22;66726;52.388;9.986;2024-03-08T03:17:06;1.30;99.90
77582;DHT22;66726;52.388;9.986;2024-03-08T03:19:36;1.30;99.90
77582;DHT22;66726;52.388;9.986;2024-03-08T03:22:06;1.30;99.90
77582;DHT22;66726;52.388;9.986;2024-03-08T03:24:36;1.40;99.90
77582;DHT22;66726;52.388;9.986;2024-03-08T03:27:05;1.30;99.90
77582;DHT22;66726;52.388;9.986;2024-03-08T03:29:39;1.30;99.90
77582;DHT22;66726;52.388;9.986;2024-03-08T03:32:09;1.30;99.90
77582;DHT22;66726;52.388;9.986;2024-03-08T03:34:38;1.40;99.90
77582;DHT22;66726;52.388;9.986;2024-03-08T03:37:07;1.40;99.90
77582;DHT22;66726;52.388;9.986;2024-03-08T03:39:39;1.40;99.90
77582;DHT22;66726;52.388;9.986;2024-03-08T03:42:15;1.30;99.90
77582;DHT22;66726;52.388;9.986;2024-03-08T03:44:46;1.30;99.90
77582;DHT22;66726;52.388;9.986;2024-03-08T03:47:15;1.30;99.90
77582;DHT22;66726;52.388;9.986;2024-03-08T03:49:43;1.30;99.90
77582;DHT22;66726;52.388;9.986;2024-03-08T03:52:11;1.20;99.90
77582;DHT22;66726;52.388;9.986;2024-03-08T03:54:39;1.20;99.90
77582;DHT22;66726;52.388;9.986;2024-03-08T03:57:07;1.20;99.90
77582;DHT22;66726;52.388;9.986;2024-03-08T03:59:36;1.20;99.90
77582;DHT22;66726;52.388;9.986;2024-03-08T04:02:06;1.20;99.90
77582;DHT22;66726;52.388;9.986;2024-03-08T04:04:34;1.10;99.90
77582;DHT22;66726;52.388;9.986;2024-03-08T04:07:02;1.20;99.90
77582;DHT22;66726;52.388;9.986;2024-03-08T04:09:30;1.30;99.90
77582;DHT22;66726;52.388;9.986;2024-03-08T04:11:58;1.20;99.90
77582;DHT22;66726;52.388;9.986;2024-03-08T04:14:28;1.20;99.90
77582;DHT22;66726;52.388;9.986;2024-03-08T04:16:56;1.10;99.90
77582;DHT22;66726;52.388;9.986;2024-03-08T04:19:25;1.20;99.90
77582;DHT22;66726;52.388;9.986;2024-03-08T04:21:54;1.10;99.90
77582;DHT22;66726;52.388;9.986;2024-03-08T04:24:22;1.10;99.90
77582;DHT22;66726;52.388;9.986;2024-03-08T04:26:51;1.10;99.90
77582;DHT22;66726;52.388;9.986;2024-03-08T04:29:19;1.10;99.90
77582;DHT22;66726;52.388;9.986;2024-03-08T04:31:48;1.10;99.90
77582;DHT22;66726;52.388;9.986;2024-03-08T04:34:20;1.10;99.90
77582;DHT22;66726;52.388;9.986;2024-03-08T04:36:50;1.00;99.90
77582;DHT22;66726;52.388;9.986;2024-03-08T04:39:18;1.10;99.90
77582;DHT22;66726;52.388;9.986;2024-03-08T04:41:49;1.10;99.90
77582;DHT22;66726;52.388;9.986;2024-03-08T04:44:18;1.00;99.90
77582;DHT22;66726;52.388;9.986;2024-03-08T04:46:46;1.10;99.90
77582;DHT22;66726;52.388;9.986;2024-03-08T04:49:15;1.00;99.90
77582;DHT22;66726;52.388;9.986;2024-03-08T04:51:43;1.00;99.90
77582;DHT22;66726;52.388;9.986;2024-03-08T04:54:14;1.00;99.90
77582;DHT22;66726;52.388;9.986;2024-03-08T04:56:42;1.00;99.90
77582;DHT22;66726;52.388;9.986;2024-03-08T04:59:10;1.00;99.90
77582;DHT22;66726;52.388;9.986;2024-03-08T05:01:38;0.90;99.90
77582;DHT22;66726;52.388;9.986;2024-03-08T05:04:06;0.80;99.90
77582;DHT22;66726;52.388;9.986;2024-03-08T05:06:36;0.80;99.90
77582;DHT22;66726;52.388;9.986;2024-03-08T05:09:04;0.80;99.90
77582;DHT22;66726;52.388;9.986;2024-03-08T05:11:42;0.80;99.90
77582;DHT22;66726;52.388;9.986;2024-03-08T05:14:11;0.80;99.90
77582;DHT22;66726;52.388;9.986;2024-03-08T05:16:43;0.70;99.90
77582;DHT22;66726;52.388;9.986;2024-03-08T05:19:15;0.80;99.90
77582;DHT22;66726;52.388;9.986;2024-03-08T05:21:44;0.70;99.90
77582;DHT22;66726;52.388;9.986;2024-03-08T05:24:13;0.80;99.90
77582;DHT22;66726;52.388;9.986;2024-03-08T05:26:42;0.80;99.90
77582;DHT22;66726;52.388;9.986;2024-03-08T05:29:11;0.70;99.90
77582;DHT22;66726;52.388;9.986;2024-03-08T05:31:46;0.70;99.90
77582;DHT22;66726;52.388;9.986;2024-03-08T05:34:16;0.70;99.90
77582;DHT22;66726;52.388;9.986;2024-03-08T05:36:46;0.80;99.90
77582;DHT22;66726;52.388;9.986;2024-03-08T05:39:16;0.80;99.90
77582;DHT22;66726;52.388;9.986;2024-03-08T05:41:48;0.80;99.90
77582;DHT22;66726;52.388;9.986;2024-03-08T05:44:17;0.80;99.90
77582;DHT22;66726;52.388;9.986;2024-03-08T05:46:45;0.80;99.90
77582;DHT22;66726;52.388;9.986;2024-03-08T05:49:14;0.80;99.90
77582;DHT22;66726;52.388;9.986;2024-03-08T05:51:43;0.80;99.90
77582;DHT22;66726;52.388;9.986;2024-03-08T05:54:12;0.80;99.90
77582;DHT22;66726;52.388;9.986;2024-03-08T05:56:43;0.80;99.90
77582;DHT22;66726;52.388;9.986;2024-03-08T05:59:13;0.80;99.90
77582;DHT22;66726;52.388;9.986;2024-03-08T06:01:41;0.70;99.90
77582;DHT22;66726;52.388;9.986;2024-03-08T06:04:10;0.70;99.90
77582;DHT22;66726;52.388;9.986;2024-03-08T06:06:39;0.70;99.90
77582;DHT22;66726;52.388;9.986;2024-03-08T06:09:08;0.80;99.90
77582;DHT22;66726;52.388;9.986;2024-03-08T06:11:39;0.80;99.90
77582;DHT22;66726;52.388;9.986;2024-03-08T06:14:09;0.70;99.90
77582;DHT22;66726;52.388;9.986;2024-03-08T06:16:39;0.70;99.90
77582;DHT22;66726;52.388;9.986;2024-03-08T06:19:07;0.70;99.90
77582;DHT22;66726;52.388;9.986;2024-03-08T06:21:35;0.60;99.90
77582;DHT22;66726;52.388;9.986;2024-03-08T06:24:03;0.70;99.90
77582;DHT22;66726;52.388;9.986;2024-03-08T06:26:32;0.70;99.90
77582;DHT22;66726;52.388;9.986;2024-03-08T06:29:03;0.70;99.90
77582;DHT22;66726;52.388;9.986;2024-03-08T06:31:33;0.70;99.90
77582;DHT22;66726;52.388;9.986;2024-03-08T06:34:02;0.70;99.90
77582;DHT22;66726;52.388;9.986;2024-03-08T06:36:34;0.70;99.90
77582;DHT22;66726;52.388;9.986;2024-03-08T06:39:04;0.70;99.90
77582;DHT22;66726;52.388;9.986;2024-03-08T06:41:37;0.70;99.90
77582;DHT22;66726;52.388;9.986;2024-03-08T06:44:05;0.70;99.90
77582;DHT22;66726;52.388;9.986;2024-03-08T06:46:34;0.70;99.90
77582;DHT22;66726;52.388;9.986;2024-03-08T06:49:04;0.80;99.90
77582;DHT22;66726;52.388;9.986;2024-03-08T06:51:34;0.80;99.90
77582;DHT22;66726;52.388;9.986;2024-03-08T06:54:02;0.80;99.90
77582;DHT22;66726;52.388;9.986;2024-03-08T06:56:35;0.80;99.90
77582;DHT22;66726;52.388;9.986;2024-03-08T06:59:03;0.70;99.90
77582;DHT22;66726;52.388;9.986;2024-03-08T07:01:31;0.80;99.90
77582;DHT22;66726;52.388;9.986;2024-03-08T07:04:04;0.80;99.90
77582;DHT22;66726;52.388;9.986;2024-03-08T07:06:33;0.80;99.90
77582;DHT22;66726;52.388;9.986;2024-03-08T07:09:01;0.80;99.90
77582;DHT22;66726;52.388;9.986;2024-03-08T07:11:29;0.80;99.90
77582;DHT22;66726;52.388;9.986;2024-03-08T07:13:58;0.80;99.90
77582;DHT22;66726;52.388;9.986;2024-03-08T07:16:29;0.90;99.90
77582;DHT22;66726;52.388;9.986;2024-03-08T07:18:57;0.90;99.90
77582;DHT22;66726;52.388;9.986;2024-03-08T07:21:27;0.90;99.90
77582;DHT22;66726;52.388;9.986;2024-03-08T07:23:55;0.90;99.90
77582;DHT22;66726;52.388;9.986;2024-03-08T07:26:51;0.90;99.90
77582;DHT22;66726;52.388;9.986;2024-03-08T07:29:19;1.00;99.90
77582;DHT22;66726;52.388;9.986;2024-03-08T07:31:47;1.00;99.90
77582;DHT22;66726;52.388;9.986;2024-03-08T07:34:22;1.00;99.90
77582;DHT22;66726;52.388;9.986;2024-03-08T07:36:52;1.10;99.90
77582;DHT22;66726;52.388;9.986;2024-03-08T07:39:20;1.10;99.90
77582;DHT22;66726;52.388;9.986;2024-03-08T07:41:50;1.10;99.90
77582;DHT22;66726;52.388;9.986;2024-03-08T07:44:19;1.10;99.90
77582;DHT22;66726;52.388;9.986;2024-03-08T07:46:47;1.20;99.90
77582;DHT22;66726;52.388;9.986;2024-03-08T07:49:15;1.30;99.90
77582;DHT22;66726;52.388;9.986;2024-03-08T07:51:44;1.30;99.90
77582;DHT22;66726;52.388;9.986;2024-03-08T07:54:14;1.30;99.90
77582;DHT22;66726;52.388;9.986;2024-03-08T07:56:42;1.40;99.90
77582;DHT22;66726;52.388;9.986;2024-03-08T07:59:11;1.40;99.90
77582;DHT22;66726;52.388;9.986;2024-03-08T08:01:39;1.50;99.90
77582;DHT22;66726;52.388;9.986;2024-03-08T08:04:08;1.50;99.90
77582;DHT22;66726;52.388;9.986;2024-03-08T08:06:39;1.60;99.90
77582;DHT22;66726;52.388;9.986;2024-03-08T08:09:08;1.60;99.90
77582;DHT22;66726;52.388;9.986;2024-03-08T08:11:42;1.70;99.90
77582;DHT22;66726;52.388;9.986;2024-03-08T08:14:10;1.70;99.90
77582;DHT22;66726;52.388;9.986;2024-03-08T08:16:38;1.80;99.90
77582;DHT22;66726;52.388;9.986;2024-03-08T08:19:09;1.80;99.90
77582;DHT22;66726;52.388;9.986;2024-03-08T08:21:41;2.00;99.90
77582;DHT22;66726;52.388;9.986;2024-03-08T08:24:09;2.00;99.90
77582;DHT22;66726;52.388;9.986;2024-03-08T08:26:38;2.10;99.90
77582;DHT22;66726;52.388;9.986;2024-03-08T08:29:08;2.10;99.90
77582;DHT22;66726;52.388;9.986;2024-03-08T08:31:36;2.20;99.90
77582;DHT22;66726;52.388;9.986;2024-03-08T08:34:04;2.30;99.90
77582;DHT22;66726;52.388;9.986;2024-03-08T08:36:33;2.40;99.90
77582;DHT22;66726;52.388;9.986;2024-03-08T08:39:02;2.50;99.90
77582;DHT22;66726;52.388;9.986;2024-03-08T08:41:30;2.50;99.90
77582;DHT22;66726;52.388;9.986;2024-03-08T08:43:58;2.60;99.90
77582;DHT22;66726;52.388;9.986;2024-03-08T08:46:42;2.80;99.90
77582;DHT22;66726;52.388;9.986;2024-03-08T08:49:11;2.90;99.90
77582;DHT22;66726;52.388;9.986;2024-03-08T08:51:41;3.00;99.90
77582;DHT22;66726;52.388;9.986;2024-03-08T08:54:09;3.00;99.90
77582;DHT22;66726;52.388;9.986;2024-03-08T08:56:40;3.10;99.90
77582;DHT22;66726;52.388;9.986;2024-03-08T08:59:10;3.20;99.90
77582;DHT22;66726;52.388;9.986;2024-03-08T09:01:40;3.20;99.90
77582;DHT22;66726;52.388;9.986;2024-03-08T09:04:10;3.40;99.90
77582;DHT22;66726;52.388;9.986;2024-03-08T09:06:39;3.40;99.90
77582;DHT22;66726;52.388;9.986;2024-03-08T09:09:08;3.50;99.90
77582;DHT22;66726;52.388;9.986;2024-03-08T09:11:37;3.60;99.90
77582;DHT22;66726;52.388;9.986;2024-03-08T09:14:08;3.70;99.90
77582;DHT22;66726;52.388;9.986;2024-03-08T09:16:38;3.80;99.90
77582;DHT22;66726;52.388;9.986;2024-03-08T09:19:07;3.90;99.90
77582;DHT22;66726;52.388;9.986;2024-03-08T09:21:39;3.90;99.90
77582;DHT22;66726;52.388;9.986;2024-03-08T09:24:07;4.00;99.90
77582;DHT22;66726;52.388;9.986;2024-03-08T09:26:35;4.10;99.90
77582;DHT22;66726;52.388;9.986;2024-03-08T09:29:04;4.20;99.90
77582;DHT22;66726;52.388;9.986;2024-03-08T09:31:33;4.30;99.90
77582;DHT22;66726;52.388;9.986;2024-03-08T09:34:01;4.40;99.90
77582;DHT22;66726;52.388;9.986;2024-03-08T09:36:30;4.40;99.90
77582;DHT22;66726;52.388;9.986;2024-03-08T09:39:00;4.50;99.90
77582;DHT22;66726;52.388;9.986;2024-03-08T09:41:29;4.60;99.90
77582;DHT22;66726;52.388;9.986;2024-03-08T09:43:58;4.70;99.90
77582;DHT22;66726;52.388;9.986;2024-03-08T09:46:27;4.80;99.90
77582;DHT22;66726;52.388;9.986;2024-03-08T09:48:55;4.90;99.90
77582;DHT22;66726;52.388;9.986;2024-03-08T09:51:28;4.90;99.90
77582;DHT22;66726;52.388;9.986;2024-03-08T09:53:57;5.00;99.90
77582;DHT22;66726;52.388;9.986;2024-03-08T09:56:32;5.10;99.90
77582;DHT22;66726;52.388;9.986;2024-03-08T09:59:01;5.20;99.90
77582;DHT22;66726;52.388;9.986;2024-03-08T10:01:46;5.30;99.90
77582;DHT22;66726;52.388;9.986;2024-03-08T10:04:15;5.40;99.90
77582;DHT22;66726;52.388;9.986;2024-03-08T10:06:44;5.40;99.90
77582;DHT22;66726;52.388;9.986;2024-03-08T10:09:13;5.50;99.90
77582;DHT22;66726;52.388;9.986;2024-03-08T10:11:45;5.60;99.90
77582;DHT22;66726;52.388;9.986;2024-03-08T10:14:13;5.70;99.90
77582;DHT22;66726;52.388;9.986;2024-03-08T10:16:45;5.70;99.90
77582;DHT22;66726;52.388;9.986;2024-03-08T10:19:14;5.80;99.90
77582;DHT22;66726;52.388;9.986;2024-03-08T10:21:50;5.90;99.90
77582;DHT22;66726;52.388;9.986;2024-03-08T10:24:20;6.00;99.90
77582;DHT22;66726;52.388;9.986;2024-03-08T10:26:53;6.10;99.90
77582;DHT22;66726;52.388;9.986;2024-03-08T10:29:22;6.10;99.90
77582;DHT22;66726;52.388;9.986;2024-03-08T10:31:50;6.30;99.90
77582;DHT22;66726;52.388;9.986;2024-03-08T10:34:18;6.30;99.90
77582;DHT22;66726;52.388;9.986;2024-03-08T10:36:50;6.40;99.90
77582;DHT22;66726;52.388;9.986;2024-03-08T10:39:23;6.40;99.90
77582;DHT22;66726;52.388;9.986;2024-03-08T10:41:58;6.50;99.90
77582;DHT22;66726;52.388;9.986;2024-03-08T10:44:40;6.60;99.90
77582;DHT22;66726;52.388;9.986;2024-03-08T10:47:20;6.80;99.90
77582;DHT22;66726;52.388;9.986;2024-03-08T10:50:04;6.90;99.90
77582;DHT22;66726;52.388;9.986;2024-03-08T10:52:40;6.90;99.90
77582;DHT22;66726;52.388;9.986;2024-03-08T10:55:10;7.00;99.90
77582;DHT22;66726;52.388;9.986;2024-03-08T10:57:42;7.00;99.90
77582;DHT22;66726;52.388;9.986;2024-03-08T11:00:12;7.20;99.90
77582;DHT22;66726;52.388;9.986;2024-03-08T11:02:43;7.20;99.90
77582;DHT22;66726;52.388;9.986;2024-03-08T11:05:31;7.30;99.90
77582;DHT22;66726;52.388;9.986;2024-03-08T11:08:17;7.40;99.90
77582;DHT22;66726;52.388;9.986;2024-03-08T11:10:48;7.50;99.90
77582;DHT22;66726;52.388;9.986;2024-03-08T11:13:36;7.60;99.90
77582;DHT22;66726;52.388;9.986;2024-03-08T11:16:07;7.60;99.90
77582;DHT22;66726;52.388;9.986;2024-03-08T11:18:37;7.60;99.90
77582;DHT22;66726;52.388;9.986;2024-03-08T11:21:08;7.70;99.90
77582;DHT22;66726;52.388;9.986;2024-03-08T11:23:39;7.80;99.90
77582;DHT22;66726;52.388;9.986;2024-03-08T11:26:18;7.80;99.90
77582;DHT22;66726;52.388;9.986;2024-03-08T11:28:49;8.00;99.90
77582;DHT22;66726;52.388;9.986;2024-03-08T11:31:23;8.00;99.90
77582;DHT22;66726;52.388;9.986;2024-03-08T11:33:53;8.00;99.90
77582;DHT22;66726;52.388;9.986;2024-03-08T11:36:24;8.10;99.90
77582;DHT22;66726;52.388;9.986;2024-03-08T11:38:53;8.20;99.90
77582;DHT22;66726;52.388;9.986;2024-03-08T11:41:24;8.20;99.90
77582;DHT22;66726;52.388;9.986;2024-03-08T11:44:03;8.30;99.90
77582;DHT22;66726;52.388;9.986;2024-03-08T11:46:33;8.50;99.90
77582;DHT22;66726;52.388;9.986;2024-03-08T11:49:02;8.40;99.90
77582;DHT22;66726;52.388;9.986;2024-03-08T11:51:31;8.60;99.90
77582;DHT22;66726;52.388;9.986;2024-03-08T11:54:00;8.40;99.90
77582;DHT22;66726;52.388;9.986;2024-03-08T11:56:29;8.50;99.90
77582;DHT22;66726;52.388;9.986;2024-03-08T11:58:58;8.70;99.90
77582;DHT22;66726;52.388;9.986;2024-03-08T12:01:29;8.80;99.90
77582;DHT22;66726;52.388;9.986;2024-03-08T12:04:00;8.90;99.90
77582;DHT22;66726;52.388;9.986;2024-03-08T12:06:36;9.00;99.90
77582;DHT22;66726;52.388;9.986;2024-03-08T12:09:08;9.20;99.90
77582;DHT22;66726;52.388;9.986;2024-03-08T12:11:37;9.10;99.90
77582;DHT22;66726;52.388;9.986;2024-03-08T12:14:06;9.20;99.90
77582;DHT22;66726;52.388;9.986;2024-03-08T12:16:37;9.20;99.90
77582;DHT22;66726;52.388;9.986;2024-03-08T12:19:06;9.30;99.90
77582;DHT22;66726;52.388;9.986;2024-03-08T12:21:36;9.40;99.90
77582;DHT22;66726;52.388;9.986;2024-03-08T12:24:05;9.50;99.90
77582;DHT22;66726;52.388;9.986;2024-03-08T12:26:36;9.40;99.90
77582;DHT22;66726;52.388;9.986;2024-03-08T12:29:16;9.60;99.90
77582;DHT22;66726;52.388;9.986;2024-03-08T12:31:50;9.70;99.90
77582;DHT22;66726;52.388;9.986;2024-03-08T12:34:21;9.70;99.90
77582;DHT22;66726;52.388;9.986;2024-03-08T12:36:51;9.70;99.90
77582;DHT22;66726;52.388;9.986;2024-03-08T12:39:21;9.60;99.90
77582;DHT22;66726;52.388;9.986;2024-03-08T12:41:54;9.70;99.90
77582;DHT22;66726;52.388;9.986;2024-03-08T12:44:23;9.80;99.90
77582;DHT22;66726;52.388;9.986;2024-03-08T12:46:53;9.90;99.90
77582;DHT22;66726;52.388;9.986;2024-03-08T12:49:22;10.00;99.90
77582;DHT22;66726;52.388;9.986;2024-03-08T12:51:50;10.20;99.90
77582;DHT22;66726;52.388;9.986;2024-03-08T12:54:20;10.20;99.90
77582;DHT22;66726;52.388;9.986;2024-03-08T12:56:51;10.10;99.90
77582;DHT22;66726;52.388;9.986;2024-03-08T12:59:21;10.00;99.90
77582;DHT22;66726;52.388;9.986;2024-03-08T13:01:50;10.20;99.90
77582;DHT22;66726;52.388;9.986;2024-03-08T13:04:21;10.30;99.90
77582;DHT22;66726;52.388;9.986;2024-03-08T13:06:50;10.40;99.90
77582;DHT22;66726;52.388;9.986;2024-03-08T13:09:21;10.50;99.90
77582;DHT22;66726;52.388;9.986;2024-03-08T13:11:49;10.40;99.90
77582;DHT22;66726;52.388;9.986;2024-03-08T13:14:18;10.50;99.90
77582;DHT22;66726;52.388;9.986;2024-03-08T13:16:47;10.70;99.90
77582;DHT22;66726;52.388;9.986;2024-03-08T13:19:16;10.60;99.90
77582;DHT22;66726;52.388;9.986;2024-03-08T13:21:45;10.90;99.90
77582;DHT22;66726;52.388;9.986;2024-03-08T13:24:16;11.00;99.90
77582;DHT22;66726;52.388;9.986;2024-03-08T13:26:45;10.90;99.90
77582;DHT22;66726;52.388;9.986;2024-03-08T13:29:14;10.90;99.90
77582;DHT22;66726;52.388;9.986;2024-03-08T13:31:45;11.00;99.90
77582;DHT22;66726;52.388;9.986;2024-03-08T13:34:16;11.00;99.90
77582;DHT22;66726;52.388;9.986;2024-03-08T13:36:45;10.90;99.90
77582;DHT22;66726;52.388;9.986;2024-03-08T13:39:13;11.00;99.90
77582;DHT22;66726;52.388;9.986;2024-03-08T13:41:42;11.20;99.90
77582;DHT22;66726;52.388;9.986;2024-03-08T13:44:11;11.10;99.90
77582;DHT22;66726;52.388;9.986;2024-03-08T13:46:39;11.10;99.90
77582;DHT22;66726;52.388;9.986;2024-03-08T13:49:08;11.10;99.90
77582;DHT22;66726;52.388;9.986;2024-03-08T13:51:38;11.30;99.90
77582;DHT22;66726;52.388;9.986;2024-03-08T13:54:07;11.40;99.90
77582;DHT22;66726;52.388;9.986;2024-03-08T13:56:36;11.40;99.90
77582;DHT22;66726;52.388;9.986;2024-03-08T13:59:04;11.20;99.90
77582;DHT22;66726;52.388;9.986;2024-03-08T14:01:33;11.40;99.90
77582;DHT22;66726;52.388;9.986;2024-03-08T14:04:02;11.30;99.90
77582;DHT22;66726;52.388;9.986;2024-03-08T14:06:31;11.30;99.90
77582;DHT22;66726;52.388;9.986;2024-03-08T14:08:59;11.40;99.90
77582;DHT22;66726;52.388;9.986;2024-03-08T14:11:29;11.40;98.20
77582;DHT22;66726;52.388;9.986;2024-03-08T14:13:58;11.50;98.70
77582;DHT22;66726;52.388;9.986;2024-03-08T14:16:26;11.50;99.60
77582;DHT22;66726;52.388;9.986;2024-03-08T14:18:54;11.50;99.90
77582;DHT22;66726;52.388;9.986;2024-03-08T14:21:22;11.40;95.60
77582;DHT22;66726;52.388;9.986;2024-03-08T14:23:50;11.50;99.90
77582;DHT22;66726;52.388;9.986;2024-03-08T14:26:19;11.50;96.80
77582;DHT22;66726;52.388;9.986;2024-03-08T14:28:49;11.50;95.90
77582;DHT22;66726;52.388;9.986;2024-03-08T14:31:21;11.60;97.40
77582;DHT22;66726;52.388;9.986;2024-03-08T14:33:52;11.70;96.70
77582;DHT22;66726;52.388;9.986;2024-03-08T14:36:20;11.40;96.80
77582;DHT22;66726;52.388;9.986;2024-03-08T14:38:49;11.50;98.00
77582;DHT22;66726;52.388;9.986;2024-03-08T14:41:17;11.50;97.90
77582;DHT22;66726;52.388;9.986;2024-03-08T14:43:45;11.60;99.20
77582;DHT22;66726;52.388;9.986;2024-03-08T14:46:16;11.50;97.30
77582;DHT22;66726;52.388;9.986;2024-03-08T14:48:44;11.60;97.50
77582;DHT22;66726;52.388;9.986;2024-03-08T14:51:18;11.70;96.50
77582;DHT22;66726;52.388;9.986;2024-03-08T14:53:48;11.80;99.60
77582;DHT22;66726;52.388;9.986;2024-03-08T14:56:17;11.70;97.40
77582;DHT22;66726;52.388;9.986;2024-03-08T14:58:46;11.80;98.00
77582;DHT22;66726;52.388;9.986;2024-03-08T15:01:18;11.70;98.70
77582;DHT22;66726;52.388;9.986;2024-03-08T15:03:49;11.80;99.90
77582;DHT22;66726;52.388;9.986;2024-03-08T15:06:17;11.70;98.30
77582;DHT22;66726;52.388;9.986;2024-03-08T15:08:47;11.80;98.80
77582;DHT22;66726;52.388;9.986;2024-03-08T15:11:16;11.60;96.80
77582;DHT22;66726;52.388;9.986;2024-03-08T15:13:48;11.50;96.00
77582;DHT22;66726;52.388;9.986;2024-03-08T15:16:21;11.50;98.40
77582;DHT22;66726;52.388;9.986;2024-03-08T15:18:51;11.50;99.10
77582;DHT22;66726;52.388;9.986;2024-03-08T15:21:20;11.50;99.00
77582;DHT22;66726;52.388;9.986;2024-03-08T15:23:52;11.30;97.40
77582;DHT22;66726;52.388;9.986;2024-03-08T15:26:21;11.60;98.80
77582;DHT22;66726;52.388;9.986;2024-03-08T15:28:49;11.40;97.10
77582;DHT22;66726;52.388;9.986;2024-03-08T15:31:20;11.40;97.90
77582;DHT22;66726;52.388;9.986;2024-03-08T15:33:51;11.40;97.00
77582;DHT22;66726;52.388;9.986;2024-03-08T15:36:27;11.20;95.40
77582;DHT22;66726;52.388;9.986;2024-03-08T15:38:57;11.20;96.60
77582;DHT22;66726;52.388;9.986;2024-03-08T15:41:26;11.10;97.40
77582;DHT22;66726;52.388;9.986;2024-03-08T15:43:54;11.10;99.70
77582;DHT22;66726;52.388;9.986;2024-03-08T15:46:24;11.00;98.20
77582;DHT22;66726;52.388;9.986;2024-03-08T15:48:52;10.90;98.60
77582;DHT22;66726;52.388;9.986;2024-03-08T15:51:20;11.00;99.90
77582;DHT22;66726;52.388;9.986;2024-03-08T15:53:48;11.00;99.00
77582;DHT22;66726;52.388;9.986;2024-03-08T15:56:22;11.00;98.40
77582;DHT22;66726;52.388;9.986;2024-03-08T15:58:50;10.80;97.60